createdAt,value
2023-03-14T00:01:47.341Z,1.92
2023-03-14T00:04:49.991Z,2.55
2023-03-14T00:07:52.594Z,2.00
2023-03-14T00:10:55.226Z,2.47
2023-03-14T00:13:57.956Z,1.77
2023-03-14T00:17:00.493Z,2.55
2023-03-14T00:20:12.779Z,3.03
2023-03-14T00:23:15.273Z,2.47
2023-03-14T00:26:19.809Z,2.25
2023-03-14T00:29:22.517Z,2.55
2023-03-14T00:32:25.390Z,2.03
2023-03-14T00:35:28.019Z,2.65
2023-03-14T00:38:32.220Z,2.25
2023-03-14T00:41:34.747Z,2.03
2023-03-14T00:44:37.366Z,2.75
2023-03-14T00:47:47.250Z,2.70
2023-03-14T00:50:49.786Z,2.95
2023-03-14T00:53:52.357Z,2.17
2023-03-14T00:56:55.050Z,2.67
2023-03-14T00:59:58.640Z,1.92
2023-03-14T01:03:01.972Z,2.20
2023-03-14T01:06:16.088Z,2.70
2023-03-14T01:09:19.034Z,2.83
2023-03-14T01:12:24.745Z,2.88
2023-03-14T01:15:27.406Z,2.97
2023-03-14T01:18:30.006Z,2.53
2023-03-14T01:21:34.240Z,3.05
2023-03-14T01:24:38.435Z,3.08
2023-03-14T01:27:41.643Z,2.65
2023-03-14T01:30:44.618Z,2.25
2023-03-14T01:33:49.027Z,2.88
2023-03-14T01:36:51.933Z,2.55
2023-03-14T01:39:55.456Z,2.45
2023-03-14T01:43:06.803Z,3.45
2023-03-14T01:46:10.093Z,2.80
2023-03-14T01:49:24.023Z,2.95
2023-03-14T01:52:36.962Z,2.90
2023-03-14T01:55:40.011Z,3.03
2023-03-14T01:58:43.214Z,3.38
2023-03-14T02:01:48.394Z,2.70
2023-03-14T02:04:52.536Z,3.47
2023-03-14T02:08:00.187Z,2.88
2023-03-14T02:11:08.571Z,3.15
2023-03-14T02:14:35.113Z,3.17
2023-03-14T02:18:07.196Z,3.38
2023-03-14T02:21:57.182Z,2.72
2023-03-14T02:28:20.521Z,2.15
2023-03-14T02:31:26.112Z,3.05
2023-03-14T02:34:29.047Z,2.63
2023-03-14T02:37:40.226Z,2.85
2023-03-14T02:40:43.816Z,3.20
2023-03-14T02:43:47.185Z,3.33
2023-03-14T02:46:51.231Z,3.08
2023-03-14T02:49:57.158Z,2.08
2023-03-14T02:52:59.705Z,2.67
2023-03-14T02:56:03.339Z,2.45
2023-03-14T02:59:08.272Z,3.08
2023-03-14T03:02:18.356Z,2.65
2023-03-14T03:05:20.900Z,2.55
2023-03-14T03:08:25.572Z,2.50
2023-03-14T03:11:28.290Z,2.58
2023-03-14T03:14:31.240Z,2.90
2023-03-14T03:17:40.039Z,2.40
2023-03-14T03:20:42.663Z,2.85
2023-03-14T03:23:45.714Z,3.00
2023-03-14T03:26:48.339Z,2.70
2023-03-14T03:29:53.564Z,2.53
2023-03-14T03:33:26.639Z,2.55
2023-03-14T03:36:36.198Z,2.30
2023-03-14T03:39:46.505Z,2.80
2023-03-14T03:43:01.241Z,3.38
2023-03-14T03:46:09.371Z,3.17
2023-03-14T03:49:20.729Z,2.58
2023-03-14T03:52:23.783Z,2.75
2023-03-14T03:55:44.364Z,2.72
2023-03-14T03:58:49.918Z,2.60
2023-03-14T04:01:53.238Z,3.15
2023-03-14T04:04:56.010Z,3.58
2023-03-14T04:07:58.692Z,2.70
2023-03-14T04:11:04.437Z,2.63
2023-03-14T04:14:22.270Z,3.10
2023-03-14T04:17:32.345Z,3.45
2023-03-14T04:20:36.363Z,3.45
2023-03-14T04:23:40.150Z,2.28
2023-03-14T04:26:43.614Z,2.67
2023-03-14T04:29:47.748Z,2.40
2023-03-14T04:32:53.444Z,2.35
2023-03-14T04:35:59.315Z,2.38
2023-03-14T04:39:01.896Z,2.60
2023-03-14T04:42:04.634Z,3.13
2023-03-14T04:45:08.193Z,2.78
2023-03-14T04:48:11.609Z,2.63
2023-03-14T04:51:14.572Z,2.08
2023-03-14T04:54:17.532Z,2.70
2023-03-14T04:57:21.332Z,2.80
2023-03-14T05:00:24.844Z,2.47
2023-03-14T05:03:53.665Z,2.63
2023-03-14T05:07:09.119Z,2.70
2023-03-14T05:10:44.170Z,2.33
2023-03-14T05:13:53.092Z,1.77
2023-03-14T05:17:19.793Z,1.63
2023-03-14T05:20:41.532Z,2.22
2023-03-14T05:24:07.074Z,1.85
2023-03-14T05:27:36.247Z,5.13
2023-03-14T05:31:09.593Z,2.50
2023-03-14T05:34:27.346Z,2.95
2023-03-14T05:37:53.010Z,3.25
2023-03-14T05:41:17.620Z,3.05
2023-03-14T05:44:41.050Z,2.45
2023-03-14T05:48:01.279Z,2.47
2023-03-14T05:51:27.218Z,2.60
2023-03-14T05:54:46.699Z,2.92
2023-03-14T05:58:02.184Z,4.25
2023-03-14T06:01:23.281Z,4.47
2023-03-14T06:04:40.036Z,3.22
2023-03-14T06:07:42.796Z,2.90
2023-03-14T06:10:46.705Z,4.28
2023-03-14T06:13:49.792Z,5.32
2023-03-14T06:16:52.379Z,17.98
2023-03-14T06:19:56.720Z,10.95
2023-03-14T06:23:00.032Z,6.32
2023-03-14T06:26:02.839Z,4.78
2023-03-14T06:29:06.245Z,5.63
2023-03-14T06:32:11.299Z,4.45
2023-03-14T06:35:16.914Z,2.63
2023-03-14T06:38:20.728Z,3.08
2023-03-14T06:41:27.153Z,3.72
2023-03-14T06:44:29.825Z,4.57
2023-03-14T06:47:32.752Z,3.20
2023-03-14T06:50:35.853Z,3.58
2023-03-14T06:53:39.780Z,3.97
2023-03-14T06:56:43.302Z,2.50
2023-03-14T06:59:46.159Z,4.40
2023-03-14T07:02:48.860Z,2.63
2023-03-14T07:06:02.968Z,2.08
2023-03-14T07:09:05.782Z,2.03
2023-03-14T07:12:11.132Z,2.35
2023-03-14T07:15:18.985Z,4.40
2023-03-14T07:18:25.935Z,2.80
2023-03-14T07:21:28.880Z,3.42
2023-03-14T07:24:31.653Z,2.92
2023-03-14T07:27:34.385Z,3.20
2023-03-14T07:30:37.201Z,2.78
2023-03-14T07:33:46.639Z,3.17
2023-03-14T07:36:49.317Z,1.70
2023-03-14T07:39:52.118Z,3.17
2023-03-14T07:42:58.704Z,3.58
2023-03-14T07:46:14.094Z,2.88
2023-03-14T07:49:16.656Z,3.05
2023-03-14T07:52:19.324Z,2.97
2023-03-14T07:55:22.169Z,2.10
2023-03-14T07:58:24.668Z,3.50
2023-03-14T08:01:27.312Z,4.68
2023-03-14T08:04:30.050Z,3.42
2023-03-14T08:07:32.732Z,4.10
2023-03-14T08:10:35.470Z,2.50
2023-03-14T08:13:38.632Z,2.83
2023-03-14T08:16:41.142Z,1.75
2023-03-14T08:19:43.864Z,2.17
2023-03-14T08:22:46.440Z,2.25
2023-03-14T08:25:52.572Z,2.05
2023-03-14T08:28:55.246Z,2.28
2023-03-14T08:32:01.096Z,1.95
2023-03-14T08:35:04.063Z,2.50
2023-03-14T08:38:06.740Z,2.28
2023-03-14T08:41:09.905Z,2.00
2023-03-14T08:44:12.844Z,2.33
2023-03-14T08:47:15.843Z,1.88
2023-03-14T08:50:20.761Z,1.63
2023-03-14T08:53:23.841Z,2.35
2023-03-14T08:56:26.449Z,2.05
2023-03-14T08:59:29.219Z,2.10
2023-03-14T09:02:31.763Z,2.28
2023-03-14T09:05:35.586Z,2.25
2023-03-14T09:08:39.690Z,2.05
2023-03-14T09:11:42.515Z,2.28
2023-03-14T09:14:45.197Z,2.67
2023-03-14T09:17:48.271Z,1.90
2023-03-14T09:20:51.180Z,2.00
2023-03-14T09:23:53.966Z,2.20
2023-03-14T09:26:58.100Z,2.33
2023-03-14T09:30:00.767Z,2.42
2023-03-14T09:33:03.564Z,2.40
2023-03-14T09:36:07.181Z,2.00
2023-03-14T09:39:09.874Z,1.52
2023-03-14T09:42:16.582Z,2.22
2023-03-14T09:45:28.884Z,1.65
2023-03-14T09:48:34.336Z,2.38
2023-03-14T09:51:37.686Z,1.77
2023-03-14T09:55:02.698Z,2.33
2023-03-14T09:58:11.896Z,1.77
2023-03-14T10:01:17.563Z,2.85
2023-03-14T10:04:24.377Z,2.30
2023-03-14T10:07:30.845Z,1.63
2023-03-14T10:10:33.973Z,2.17
2023-03-14T10:13:36.638Z,2.08
2023-03-14T10:16:44.110Z,1.77
2023-03-14T10:19:56.025Z,1.60
2023-03-14T10:22:58.725Z,1.83
2023-03-14T10:26:01.734Z,2.00
2023-03-14T10:29:14.351Z,2.53
2023-03-14T10:32:21.139Z,2.42
2023-03-14T10:35:24.393Z,2.17
2023-03-14T10:38:30.004Z,2.97
2023-03-14T10:41:33.111Z,2.05
2023-03-14T10:44:35.991Z,2.25
2023-03-14T10:47:50.056Z,2.53
2023-03-14T10:51:08.128Z,2.00
2023-03-14T10:54:20.900Z,1.88
2023-03-14T10:57:23.784Z,1.88
2023-03-14T11:00:26.399Z,1.95
2023-03-14T11:03:32.544Z,2.60
2023-03-14T11:06:46.280Z,2.57
2023-03-14T11:10:10.656Z,2.38
2023-03-14T11:13:35.066Z,2.30
2023-03-14T11:16:59.244Z,1.98
2023-03-14T11:20:17.183Z,2.33
2023-03-14T11:23:58.477Z,2.72
2023-03-14T11:27:18.958Z,2.80
2023-03-14T11:30:43.033Z,2.40
2023-03-14T11:34:13.157Z,3.03
2023-03-14T11:37:26.024Z,3.22
2023-03-14T11:40:29.587Z,2.28
2023-03-14T11:43:44.165Z,2.50
2023-03-14T11:46:55.242Z,2.97
2023-03-14T11:50:23.395Z,2.72
2023-03-14T11:53:49.702Z,2.17
2023-03-14T11:56:59.097Z,2.30
2023-03-14T12:00:14.352Z,2.28
2023-03-14T12:03:25.901Z,2.63
2023-03-14T12:06:37.820Z,1.98
2023-03-14T12:09:40.497Z,2.92
2023-03-14T12:12:43.485Z,4.88
2023-03-14T12:16:21.600Z,7.15
2023-03-14T12:22:29.816Z,4.28
2023-03-14T12:25:34.330Z,2.42
2023-03-14T12:28:37.299Z,2.28
2023-03-14T12:31:44.759Z,2.78
2023-03-14T12:34:47.461Z,8.20
2023-03-14T12:37:53.039Z,3.47
2023-03-14T12:41:23.825Z,5.63
2023-03-14T12:44:32.845Z,3.33
2023-03-14T12:47:38.478Z,3.22
2023-03-14T12:50:46.565Z,2.33
2023-03-14T12:54:23.029Z,2.60
2023-03-14T12:57:32.457Z,1.98
2023-03-14T13:00:37.130Z,3.50
2023-03-14T13:03:56.330Z,2.53
2023-03-14T13:07:01.271Z,2.72
2023-03-14T13:13:36.300Z,2.92
2023-03-14T13:16:39.174Z,2.47
2023-03-14T13:19:44.251Z,3.42
2023-03-14T13:22:49.294Z,1.50
2023-03-14T13:25:52.729Z,2.67
2023-03-14T13:28:55.373Z,3.33
2023-03-14T13:32:17.413Z,2.25
2023-03-14T13:35:31.090Z,2.42
2023-03-14T13:38:37.073Z,2.05
2023-03-14T13:41:41.245Z,1.60
2023-03-14T13:44:43.900Z,2.00
2023-03-14T13:47:49.253Z,2.40
2023-03-14T13:51:13.417Z,2.08
2023-03-14T13:54:27.381Z,1.38
2023-03-14T13:57:44.817Z,1.90
2023-03-14T14:01:05.301Z,1.52
2023-03-14T14:04:10.765Z,0.88
2023-03-14T14:07:19.936Z,0.80
2023-03-14T14:10:23.166Z,0.70
2023-03-14T14:13:26.509Z,0.98
2023-03-14T14:16:30.309Z,0.80
2023-03-14T14:19:35.019Z,0.98
2023-03-14T14:22:38.151Z,0.75
2023-03-14T14:25:41.090Z,1.77
2023-03-14T14:28:43.758Z,1.00
2023-03-14T14:31:46.701Z,0.47
2023-03-14T14:34:59.562Z,0.45
2023-03-14T14:38:03.159Z,0.70
2023-03-14T14:41:05.969Z,0.45
2023-03-14T14:44:09.214Z,0.80
2023-03-14T14:47:17.064Z,0.47
2023-03-14T14:50:39.526Z,0.50
2023-03-14T14:53:44.409Z,0.70
2023-03-14T14:56:50.106Z,0.73
2023-03-14T14:59:56.578Z,0.50
2023-03-14T15:03:02.207Z,0.40
2023-03-14T15:06:05.502Z,1.35
2023-03-14T15:09:11.481Z,0.70
2023-03-14T15:12:14.231Z,4.32
2023-03-14T15:15:18.671Z,1.80
2023-03-14T15:18:21.360Z,1.38
2023-03-14T15:21:25.292Z,3.55
2023-03-14T15:24:28.287Z,3.78
2023-03-14T15:27:33.338Z,1.25
2023-03-14T15:30:36.442Z,3.22
2023-03-14T15:33:39.277Z,3.97
2023-03-14T15:36:41.979Z,2.75
2023-03-14T15:39:44.845Z,3.33
2023-03-14T15:42:47.636Z,8.10
2023-03-14T15:45:51.875Z,4.30
2023-03-14T15:48:54.701Z,4.75
2023-03-14T15:51:58.208Z,4.70
2023-03-14T15:55:01.585Z,4.07
2023-03-14T15:58:04.497Z,5.20
2023-03-14T16:01:10.572Z,7.25
2023-03-14T16:04:13.743Z,2.70
2023-03-14T16:07:16.581Z,2.72
2023-03-14T16:10:19.823Z,1.50
2023-03-14T16:13:23.201Z,4.20
2023-03-14T16:16:26.032Z,7.30
2023-03-14T16:19:29.496Z,5.25
2023-03-14T16:22:35.987Z,5.85
2023-03-14T16:25:39.048Z,7.38
2023-03-14T16:28:42.651Z,16.33
2023-03-14T16:31:45.469Z,3.33
2023-03-14T16:34:48.361Z,1.92
2023-03-14T16:37:51.118Z,4.13
2023-03-14T16:41:05.036Z,4.70
2023-03-14T16:44:07.780Z,3.42
2023-03-14T16:47:11.101Z,3.08
2023-03-14T16:50:13.961Z,2.83
2023-03-14T16:53:16.720Z,3.65
2023-03-14T16:56:19.685Z,3.38
2023-03-14T16:59:22.324Z,3.42
2023-03-14T17:02:25.393Z,2.80
2023-03-14T17:05:28.264Z,3.60
2023-03-14T17:08:31.255Z,2.20
2023-03-14T17:11:34.793Z,4.38
2023-03-14T17:14:38.042Z,4.97
2023-03-14T17:17:41.172Z,7.57
2023-03-14T17:20:43.993Z,10.20
2023-03-14T17:23:46.916Z,8.07
2023-03-14T17:26:49.996Z,7.15
2023-03-14T17:29:52.866Z,6.05
2023-03-14T17:32:57.599Z,7.15
2023-03-14T17:36:01.709Z,5.05
2023-03-14T17:39:04.485Z,13.75
2023-03-14T17:42:08.253Z,23.95
2023-03-14T17:45:11.559Z,9.07
2023-03-14T17:48:14.353Z,4.13
2023-03-14T17:51:17.467Z,3.72
2023-03-14T17:54:20.757Z,6.70
2023-03-14T17:57:23.740Z,3.30
2023-03-14T18:00:26.574Z,3.65
2023-03-14T18:03:29.595Z,4.10
2023-03-14T18:06:33.095Z,4.50
2023-03-14T18:09:35.938Z,3.95
2023-03-14T18:12:39.721Z,4.68
2023-03-14T18:15:43.026Z,7.10
2023-03-14T18:18:48.868Z,2.42
2023-03-14T18:21:54.822Z,1.50
2023-03-14T18:24:57.814Z,2.30
2023-03-14T18:28:01.366Z,1.02
2023-03-14T18:31:08.726Z,7.10
2023-03-14T18:34:12.537Z,3.15
2023-03-14T18:37:15.492Z,8.90
2023-03-14T18:40:20.003Z,5.53
2023-03-14T18:43:23.185Z,27.90
2023-03-14T18:46:26.244Z,22.98
2023-03-14T18:49:29.164Z,4.82
2023-03-14T18:52:32.478Z,4.13
2023-03-14T18:55:35.734Z,7.32
2023-03-14T18:58:39.010Z,2.03
2023-03-14T19:01:43.577Z,9.55
2023-03-14T19:04:46.675Z,5.40
2023-03-14T19:07:49.967Z,4.20
2023-03-14T19:10:55.189Z,5.28
2023-03-14T19:14:00.213Z,8.15
2023-03-14T19:17:03.262Z,1.63
2023-03-14T19:20:06.643Z,2.03
2023-03-14T19:23:10.036Z,1.60
2023-03-14T19:26:16.445Z,9.35
2023-03-14T19:29:19.666Z,7.10
2023-03-14T19:32:23.031Z,3.38
2023-03-14T19:35:27.676Z,7.35
2023-03-14T19:38:30.624Z,14.18
2023-03-14T19:41:34.850Z,13.25
2023-03-14T19:44:38.127Z,18.48
2023-03-14T19:47:41.525Z,19.63
2023-03-14T19:50:45.279Z,12.98
2023-03-14T19:53:49.859Z,16.98
2023-03-14T19:56:52.988Z,22.30
2023-03-14T19:59:55.839Z,17.10
2023-03-14T20:02:59.552Z,13.88
2023-03-14T20:06:12.035Z,17.02
2023-03-14T20:09:15.231Z,11.00
2023-03-14T20:12:18.712Z,15.93
2023-03-14T20:15:22.238Z,12.35
2023-03-14T20:18:25.424Z,8.40
2023-03-14T20:21:29.136Z,14.15
2023-03-14T20:24:32.884Z,9.35
2023-03-14T20:27:37.102Z,31.40
2023-03-14T20:30:40.421Z,18.33
2023-03-14T20:33:43.335Z,11.98
2023-03-14T20:36:48.372Z,10.82
2023-03-14T20:39:51.642Z,14.93
2023-03-14T20:42:54.837Z,9.35
2023-03-14T20:45:59.491Z,4.25
2023-03-14T20:49:03.254Z,5.65
2023-03-14T20:52:06.355Z,7.05
2023-03-14T20:55:09.645Z,5.13
2023-03-14T20:58:15.351Z,8.70
2023-03-14T21:07:53.429Z,5.63
2023-03-14T21:10:56.379Z,19.60
2023-03-14T21:13:59.466Z,14.05
2023-03-14T21:17:02.721Z,5.32
2023-03-14T21:20:07.089Z,1.40
2023-03-14T21:23:11.926Z,0.95
2023-03-14T21:26:15.402Z,1.17
2023-03-14T21:32:21.647Z,0.60
2023-03-14T21:35:24.481Z,1.15
2023-03-14T21:38:27.300Z,0.98
2023-03-14T21:41:30.192Z,0.60
2023-03-14T21:44:37.358Z,0.70
2023-03-14T21:47:40.450Z,1.63
2023-03-14T21:50:44.749Z,0.90
2023-03-14T21:53:47.288Z,0.63
2023-03-14T21:56:49.889Z,0.80
2023-03-14T21:59:52.613Z,0.93
2023-03-14T22:03:12.437Z,0.77
2023-03-14T22:06:15.661Z,0.75
2023-03-14T22:09:19.015Z,1.00
2023-03-14T22:12:21.794Z,1.20
2023-03-14T22:15:24.307Z,0.85
2023-03-14T22:18:26.857Z,1.10
2023-03-14T22:21:30.304Z,1.20
2023-03-14T22:24:32.979Z,1.30
2023-03-14T22:27:35.628Z,1.42
2023-03-14T22:30:41.909Z,1.17
2023-03-14T22:33:44.576Z,1.67
2023-03-14T22:36:47.226Z,1.98
2023-03-14T22:39:49.751Z,1.42
2023-03-14T22:42:54.028Z,0.73
2023-03-14T22:46:03.837Z,0.80
2023-03-14T22:49:06.485Z,0.60
2023-03-14T22:52:09.111Z,1.02
2023-03-14T22:55:11.655Z,0.80
2023-03-14T22:58:14.519Z,0.70
2023-03-14T23:01:17.319Z,1.58
2023-03-14T23:04:20.325Z,0.60
2023-03-14T23:07:22.792Z,0.90
2023-03-14T23:10:25.381Z,0.77
2023-03-14T23:13:28.465Z,1.00
2023-03-14T23:16:39.975Z,1.10
2023-03-14T23:19:45.701Z,0.60
2023-03-14T23:22:48.358Z,0.65
2023-03-14T23:25:53.766Z,0.82
2023-03-14T23:28:56.642Z,0.90
2023-03-14T23:31:59.283Z,0.90
2023-03-14T23:35:01.919Z,1.00
2023-03-14T23:38:04.478Z,0.77
2023-03-14T23:41:07.126Z,0.63
2023-03-14T23:44:14.629Z,0.57
2023-03-14T23:47:17.260Z,0.90
2023-03-14T23:50:19.835Z,0.68
2023-03-14T23:53:23.954Z,0.50
2023-03-14T23:56:26.627Z,0.60
2023-03-14T23:59:29.771Z,0.50
